createdAt,value
2023-05-31T00:02:59.141Z,5.20
2023-05-31T00:08:03.638Z,5.53
2023-05-31T00:13:06.719Z,5.33
2023-05-31T00:18:09.842Z,5.93
2023-05-31T00:23:14.300Z,5.67
2023-05-31T00:28:17.800Z,6.10
2023-05-31T00:33:21.379Z,5.53
2023-05-31T00:38:25.802Z,6.23
2023-05-31T00:43:28.865Z,6.23
2023-05-31T00:48:32.677Z,6.37
2023-05-31T00:53:37.645Z,6.33
2023-05-31T00:58:43.093Z,6.57
2023-05-31T01:03:46.211Z,6.93
2023-05-31T01:08:51.207Z,6.70
2023-05-31T01:14:03.700Z,7.03
2023-05-31T01:19:10.612Z,7.07
2023-05-31T01:24:38.308Z,6.83
2023-05-31T01:29:44.374Z,6.40
2023-05-31T01:34:48.232Z,6.40
2023-05-31T01:39:53.350Z,6.83
2023-05-31T01:44:59.367Z,6.53
2023-05-31T01:50:03.421Z,6.17
2023-05-31T01:55:07.903Z,7.13
2023-05-31T02:00:14.513Z,6.37
2023-05-31T02:05:18.182Z,6.43
2023-05-31T02:10:21.669Z,6.20
2023-05-31T02:15:26.105Z,6.57
2023-05-31T02:20:29.379Z,6.87
2023-05-31T02:25:32.897Z,6.97
2023-05-31T02:30:39.545Z,6.47
2023-05-31T02:35:42.612Z,6.90
2023-05-31T02:40:46.187Z,6.80
2023-05-31T02:45:51.777Z,7.03
2023-05-31T02:50:54.845Z,7.30
2023-05-31T02:55:59.460Z,7.13
2023-05-31T03:01:04.284Z,7.33
2023-05-31T03:06:07.856Z,7.23
2023-05-31T03:11:10.964Z,7.43
2023-05-31T03:16:16.310Z,7.87
2023-05-31T03:21:19.431Z,7.23
2023-05-31T03:26:22.517Z,7.90
2023-05-31T03:31:30.176Z,7.67
2023-05-31T03:36:33.642Z,8.23
2023-05-31T03:41:37.691Z,7.63
2023-05-31T03:46:42.285Z,8.23
2023-05-31T03:51:45.501Z,8.10
2023-05-31T03:56:48.590Z,7.97
2023-05-31T04:01:53.452Z,7.90
2023-05-31T04:06:57.004Z,7.80
2023-05-31T04:12:00.155Z,8.17
2023-05-31T04:17:04.782Z,8.07
2023-05-31T04:22:07.956Z,7.10
2023-05-31T04:27:11.248Z,7.83
2023-05-31T04:32:16.673Z,8.80
2023-05-31T04:37:20.207Z,8.33
2023-05-31T04:42:25.613Z,7.40
2023-05-31T04:47:30.554Z,7.70
2023-05-31T04:52:33.963Z,7.57
2023-05-31T04:57:37.357Z,7.13
2023-05-31T05:02:41.819Z,7.70
2023-05-31T05:07:45.593Z,7.63
2023-05-31T05:12:49.006Z,7.20
2023-05-31T05:17:57.281Z,7.27
2023-05-31T05:23:03.868Z,6.77
2023-05-31T05:28:07.913Z,6.50
2023-05-31T05:33:18.552Z,6.77
2023-05-31T05:38:23.207Z,6.77
2023-05-31T05:43:26.882Z,6.50
2023-05-31T05:48:31.790Z,7.00
2023-05-31T05:53:35.738Z,6.17
2023-05-31T05:58:39.723Z,5.67
2023-05-31T06:03:45.154Z,6.03
2023-05-31T06:08:49.424Z,6.57
2023-05-31T06:13:57.315Z,5.50
2023-05-31T06:19:02.570Z,5.67
2023-05-31T06:24:06.287Z,5.20
2023-05-31T06:29:09.832Z,4.80
2023-05-31T06:34:15.064Z,4.10
2023-05-31T06:39:18.899Z,4.20
2023-05-31T06:44:22.180Z,4.20
2023-05-31T06:49:28.771Z,3.73
2023-05-31T06:54:33.305Z,4.33
2023-05-31T06:59:36.861Z,4.30
2023-05-31T07:04:42.503Z,3.92
2023-05-31T07:09:46.534Z,3.50
2023-05-31T07:14:49.995Z,4.07
2023-05-31T07:19:54.788Z,3.15
2023-05-31T07:24:58.220Z,3.95
2023-05-31T07:30:01.992Z,3.17
2023-05-31T07:35:07.849Z,11.90
2023-05-31T07:40:11.791Z,12.23
2023-05-31T07:45:15.353Z,9.18
2023-05-31T07:50:20.518Z,3.45
2023-05-31T07:55:24.441Z,9.32
2023-05-31T08:00:30.648Z,3.63
2023-05-31T08:05:36.950Z,2.85
2023-05-31T08:10:40.651Z,2.65
2023-05-31T08:15:43.880Z,2.63
2023-05-31T08:20:48.692Z,2.53
2023-05-31T08:25:54.431Z,2.80
2023-05-31T08:30:57.778Z,2.45
2023-05-31T08:36:05.182Z,2.30
2023-05-31T08:41:09.430Z,2.58
2023-05-31T08:46:13.064Z,2.08
2023-05-31T08:51:18.165Z,2.38
2023-05-31T08:56:23.407Z,2.28
2023-05-31T09:01:29.461Z,2.10
2023-05-31T09:06:34.514Z,2.22
2023-05-31T09:11:38.795Z,2.30
2023-05-31T09:16:43.444Z,1.80
2023-05-31T09:21:48.417Z,2.03
2023-05-31T09:26:53.319Z,1.83
2023-05-31T09:32:09.909Z,2.10
2023-05-31T09:37:23.302Z,2.40
2023-05-31T09:42:28.410Z,2.20
2023-05-31T09:47:31.984Z,1.98
2023-05-31T09:52:39.137Z,2.20
2023-05-31T09:57:44.686Z,1.98
2023-05-31T10:02:49.757Z,2.10
2023-05-31T10:07:55.464Z,2.10
2023-05-31T10:13:02.485Z,2.13
2023-05-31T10:18:12.166Z,1.67
2023-05-31T10:23:22.592Z,2.40
2023-05-31T10:28:29.775Z,2.10
2023-05-31T10:33:33.913Z,1.98
2023-05-31T10:38:46.668Z,2.28
2023-05-31T10:43:56.827Z,2.10
2023-05-31T10:49:01.844Z,1.98
2023-05-31T10:54:06.776Z,1.90
2023-05-31T10:59:11.636Z,2.10
2023-05-31T11:04:22.898Z,2.05
2023-05-31T11:09:28.117Z,2.00
2023-05-31T11:14:33.195Z,2.00
2023-05-31T11:19:37.943Z,2.40
2023-05-31T11:24:51.893Z,2.10
2023-05-31T11:29:59.886Z,2.13
2023-05-31T11:35:05.667Z,2.00
2023-05-31T11:40:12.971Z,2.40
2023-05-31T11:45:18.761Z,2.28
2023-05-31T11:50:22.199Z,2.08
2023-05-31T11:55:33.919Z,2.05
2023-05-31T12:00:37.331Z,1.90
2023-05-31T12:05:41.186Z,2.00
2023-05-31T12:10:46.965Z,2.45
2023-05-31T12:15:57.029Z,2.00
2023-05-31T12:21:06.580Z,2.13
2023-05-31T12:26:13.739Z,2.08
2023-05-31T12:31:22.145Z,2.30
2023-05-31T12:36:26.077Z,2.15
2023-05-31T12:41:35.441Z,2.00
2023-05-31T12:46:43.585Z,2.10
2023-05-31T12:51:50.902Z,2.25
2023-05-31T12:57:07.862Z,2.35
2023-05-31T13:02:14.937Z,2.25
2023-05-31T13:13:27.497Z,2.30
2023-05-31T13:18:30.660Z,2.10
2023-05-31T13:23:33.785Z,2.10
2023-05-31T13:28:38.246Z,2.20
2023-05-31T13:33:41.418Z,2.13
2023-05-31T13:38:44.864Z,2.22
2023-05-31T13:43:49.611Z,2.20
2023-05-31T13:48:53.395Z,2.42
2023-05-31T13:53:56.840Z,2.28
2023-05-31T13:59:01.305Z,2.40
2023-05-31T14:04:04.738Z,1.95
2023-05-31T14:09:08.109Z,2.05
2023-05-31T14:14:12.705Z,2.00
2023-05-31T14:19:16.994Z,2.05
2023-05-31T14:24:20.266Z,2.22
2023-05-31T14:29:24.885Z,2.00
2023-05-31T14:34:28.021Z,2.63
2023-05-31T14:39:31.773Z,2.28
2023-05-31T14:44:36.725Z,2.10
2023-05-31T14:49:39.800Z,2.30
2023-05-31T14:54:42.880Z,2.20
2023-05-31T14:59:47.354Z,2.22
2023-05-31T15:04:50.502Z,2.47
2023-05-31T15:09:53.597Z,2.10
2023-05-31T15:14:58.628Z,2.30
2023-05-31T15:20:02.602Z,2.00
2023-05-31T15:25:06.873Z,2.25
2023-05-31T15:30:12.542Z,2.28
2023-05-31T15:35:16.037Z,2.08
2023-05-31T15:40:19.146Z,2.17
2023-05-31T15:45:23.650Z,2.53
2023-05-31T15:50:27.240Z,1.92
2023-05-31T15:55:30.688Z,2.42
2023-05-31T16:00:35.363Z,1.90
2023-05-31T16:05:38.846Z,2.40
2023-05-31T16:10:42.001Z,2.20
2023-05-31T16:15:46.849Z,1.95
2023-05-31T16:20:49.938Z,2.78
2023-05-31T16:25:54.754Z,2.20
2023-05-31T16:31:01.856Z,1.88
2023-05-31T16:36:05.928Z,2.17
2023-05-31T16:41:09.017Z,2.10
2023-05-31T16:46:13.477Z,2.30
2023-05-31T16:51:17.042Z,2.40
2023-05-31T16:56:20.714Z,2.17
2023-05-31T17:01:25.923Z,2.30
2023-05-31T17:06:29.055Z,2.05
2023-05-31T17:11:32.284Z,2.30
2023-05-31T17:16:36.781Z,2.40
2023-05-31T17:21:39.934Z,2.05
2023-05-31T17:26:46.346Z,2.10
2023-05-31T17:31:50.876Z,2.38
2023-05-31T17:36:54.013Z,2.42
2023-05-31T17:41:57.142Z,2.30
2023-05-31T17:47:01.642Z,2.38
2023-05-31T17:52:05.425Z,2.20
2023-05-31T17:57:09.330Z,2.30
2023-05-31T18:02:14.482Z,2.50
2023-05-31T18:07:17.631Z,2.38
2023-05-31T18:12:20.702Z,2.60
2023-05-31T18:17:25.380Z,2.63
2023-05-31T18:22:28.698Z,2.70
2023-05-31T18:27:33.247Z,2.80
2023-05-31T18:32:37.755Z,2.60
2023-05-31T18:37:41.048Z,2.60
2023-05-31T18:42:44.166Z,2.50
2023-05-31T18:47:50.568Z,2.30
2023-05-31T18:52:53.949Z,2.60
2023-05-31T18:57:57.404Z,2.67
2023-05-31T19:03:02.342Z,2.40
2023-05-31T19:08:05.901Z,2.70
2023-05-31T19:13:10.329Z,2.50
2023-05-31T19:18:18.315Z,2.47
2023-05-31T19:23:22.260Z,2.33
2023-05-31T19:28:26.325Z,2.80
2023-05-31T19:33:31.385Z,2.60
2023-05-31T19:38:35.220Z,2.57
2023-05-31T19:43:38.615Z,2.60
2023-05-31T19:48:43.428Z,2.53
2023-05-31T19:53:46.562Z,2.40
2023-05-31T19:58:49.646Z,2.50
2023-05-31T20:03:54.187Z,2.80
2023-05-31T20:08:57.329Z,3.20
2023-05-31T20:14:00.458Z,2.30
2023-05-31T20:19:04.936Z,2.43
2023-05-31T20:24:08.566Z,2.50
2023-05-31T20:29:12.071Z,2.30
2023-05-31T20:34:16.776Z,2.37
2023-05-31T20:39:19.996Z,2.60
2023-05-31T20:44:23.528Z,2.83
2023-05-31T20:49:28.002Z,2.90
2023-05-31T20:54:31.533Z,3.00
2023-05-31T20:59:36.595Z,2.73
2023-05-31T21:04:41.413Z,2.83
2023-05-31T21:09:44.917Z,2.90
2023-05-31T21:14:48.731Z,2.90
2023-05-31T21:19:53.572Z,2.60
2023-05-31T21:24:57.085Z,2.80
2023-05-31T21:30:00.192Z,2.67
2023-05-31T21:35:04.835Z,2.80
2023-05-31T21:40:09.008Z,2.50
2023-05-31T21:45:12.447Z,2.80
2023-05-31T21:50:16.981Z,2.50
2023-05-31T21:55:20.624Z,2.60
2023-05-31T22:00:23.986Z,2.73
2023-05-31T22:05:28.424Z,2.73
2023-05-31T22:10:31.478Z,3.80
2023-05-31T22:15:35.232Z,2.90
2023-05-31T22:20:39.910Z,3.13
2023-05-31T22:25:43.414Z,2.73
2023-05-31T22:30:46.840Z,2.80
2023-05-31T22:35:51.626Z,3.20
2023-05-31T22:40:55.111Z,2.83
2023-05-31T22:45:58.610Z,3.17
2023-05-31T22:51:03.396Z,3.20
2023-05-31T22:56:07.114Z,3.30
2023-05-31T23:01:10.582Z,2.90
2023-05-31T23:06:15.298Z,2.90
2023-05-31T23:24:06.889Z,3.27
2023-05-31T23:29:10.282Z,3.07
2023-05-31T23:34:15.413Z,3.20
2023-05-31T23:39:19.800Z,3.10
2023-05-31T23:44:22.846Z,3.37
2023-05-31T23:49:26.430Z,3.07
2023-05-31T23:54:31.449Z,3.00
2023-05-31T23:59:34.869Z,3.10
